createdAt,value
2018-12-18T00:00:48.815Z,101899.69
2018-12-18T00:01:54.558Z,101908.20
2018-12-18T00:03:00.034Z,101905.66
2018-12-18T00:04:05.518Z,101904.39
2018-12-18T00:05:16.242Z,101901.41
2018-12-18T00:06:21.718Z,101902.30
2018-12-18T00:07:27.300Z,101905.69
2018-12-18T00:08:32.872Z,101905.73
2018-12-18T00:09:38.478Z,101902.81
2018-12-18T00:12:07.799Z,101896.90
2018-12-18T00:13:13.304Z,101900.70
2018-12-18T00:14:18.867Z,101890.97
2018-12-18T00:15:24.420Z,101890.14
2018-12-18T00:17:46.135Z,101891.36
2018-12-18T00:18:51.571Z,101895.25
2018-12-18T00:19:57.028Z,101893.95
2018-12-18T00:21:02.482Z,101889.31
2018-12-18T00:22:09.195Z,101892.69
2018-12-18T00:23:14.664Z,101899.91
2018-12-18T00:24:20.185Z,101896.97
2018-12-18T00:25:25.622Z,101900.39
2018-12-18T00:26:31.114Z,101897.82
2018-12-18T00:27:36.676Z,101897.01
2018-12-18T00:28:42.286Z,101907.23
2018-12-18T00:29:47.786Z,101901.23
2018-12-18T00:30:53.415Z,101899.94
2018-12-18T00:31:58.900Z,101898.22
2018-12-18T00:33:04.636Z,101898.61
2018-12-18T00:34:10.218Z,101898.25
2018-12-18T00:35:15.723Z,101903.28
2018-12-18T00:36:21.180Z,101899.04
2018-12-18T00:37:26.616Z,101893.53
2018-12-18T00:38:32.152Z,101888.05
2018-12-18T00:39:37.575Z,101896.52
2018-12-18T00:40:43.204Z,101895.69
2018-12-18T00:41:48.674Z,101887.67
2018-12-18T00:42:54.187Z,101901.63
2018-12-18T00:43:59.638Z,101898.61
2018-12-18T00:45:05.843Z,101895.69
2018-12-18T00:46:11.595Z,101904.17
2018-12-18T00:47:17.098Z,101896.97
2018-12-18T00:48:22.727Z,101897.82
2018-12-18T00:49:28.263Z,101899.89
2018-12-18T00:50:34.003Z,101897.34
2018-12-18T00:51:39.431Z,101889.34
2018-12-18T00:52:44.971Z,101895.23
2018-12-18T00:53:50.526Z,101896.08
2018-12-18T00:54:56.164Z,101896.92
2018-12-18T00:56:01.614Z,101892.70
2018-12-18T00:57:07.087Z,101897.72
2018-12-18T00:58:12.527Z,101900.27
2018-12-18T00:59:17.939Z,101901.56
2018-12-18T01:00:23.651Z,101899.52
2018-12-18T01:01:29.050Z,101898.22
2018-12-18T01:02:34.623Z,101895.30
2018-12-18T01:03:40.210Z,101899.94
2018-12-18T01:04:47.452Z,101897.39
2018-12-18T01:05:52.973Z,101896.52
2018-12-18T01:06:58.475Z,101890.19
2018-12-18T01:08:04.395Z,101891.03
2018-12-18T01:09:09.951Z,101897.03
2018-12-18T01:10:15.522Z,101885.20
2018-12-18T01:11:21.164Z,101893.69
2018-12-18T01:12:26.690Z,101890.27
2018-12-18T01:13:32.538Z,101892.40
2018-12-18T01:14:37.987Z,101890.25
2018-12-18T01:15:43.465Z,101893.58
2018-12-18T01:16:48.955Z,101888.89
2018-12-18T01:17:54.406Z,101896.55
2018-12-18T01:18:59.875Z,101890.23
2018-12-18T01:20:05.603Z,101891.95
2018-12-18T01:21:11.270Z,101889.41
2018-12-18T01:22:16.803Z,101894.03
2018-12-18T01:23:22.445Z,101892.75
2018-12-18T01:24:28.080Z,101895.69
2018-12-18T01:25:33.697Z,101898.25
2018-12-18T01:26:39.248Z,101902.93
2018-12-18T01:27:44.897Z,101903.75
2018-12-18T01:28:50.484Z,101900.39
2018-12-18T01:29:55.899Z,101899.94
2018-12-18T01:31:01.636Z,101905.50
2018-12-18T01:32:07.214Z,101902.93
2018-12-18T01:33:12.735Z,101906.30
2018-12-18T01:34:18.171Z,101912.22
2018-12-18T01:35:23.812Z,101902.91
2018-12-18T01:36:29.387Z,101902.06
2018-12-18T01:37:34.933Z,101900.36
2018-12-18T01:38:40.559Z,101901.61
2018-12-18T01:39:46.062Z,101898.20
2018-12-18T01:40:51.502Z,101900.79
2018-12-18T01:41:57.056Z,101898.25
2018-12-18T01:43:02.503Z,101904.20
2018-12-18T01:44:07.927Z,101903.38
2018-12-18T01:45:13.439Z,101911.03
2018-12-18T01:46:18.913Z,101907.20
2018-12-18T01:47:24.383Z,101902.52
2018-12-18T01:48:29.878Z,101905.02
2018-12-18T01:49:35.355Z,101902.95
2018-12-18T01:50:40.945Z,101908.84
2018-12-18T01:51:46.488Z,101901.25
2018-12-18T01:52:51.887Z,101899.58
2018-12-18T01:53:57.494Z,101904.71
2018-12-18T01:55:06.074Z,101907.23
2018-12-18T01:56:11.758Z,101905.96
2018-12-18T01:57:17.266Z,101904.28
2018-12-18T01:58:22.865Z,101903.42
2018-12-18T01:59:28.468Z,101901.30
2018-12-18T02:00:33.941Z,101901.29
2018-12-18T02:01:39.490Z,101902.57
2018-12-18T02:02:45.014Z,101901.30
2018-12-18T02:03:50.450Z,101902.97
2018-12-18T02:04:55.866Z,101902.97
2018-12-18T02:06:01.443Z,101902.55
2018-12-18T02:07:07.005Z,101909.73
2018-12-18T02:08:12.511Z,101915.66
2018-12-18T02:09:17.951Z,101919.91
2018-12-18T02:10:23.584Z,101918.22
2018-12-18T02:11:29.116Z,101914.80
2018-12-18T02:12:34.565Z,101916.94
2018-12-18T02:13:40.057Z,101902.52
2018-12-18T02:14:45.455Z,101899.96
2018-12-18T02:15:50.899Z,101899.94
2018-12-18T02:16:56.335Z,101896.12
2018-12-18T02:18:01.971Z,101886.42
2018-12-18T02:19:07.407Z,101889.77
2018-12-18T02:20:12.874Z,101884.67
2018-12-18T02:21:18.440Z,101884.67
2018-12-18T02:22:24.008Z,101891.88
2018-12-18T02:23:29.532Z,101889.77
2018-12-18T02:24:34.973Z,101894.43
2018-12-18T02:25:40.566Z,101893.58
2018-12-18T02:26:46.000Z,101896.14
2018-12-18T02:27:51.571Z,101899.11
2018-12-18T02:28:57.031Z,101907.14
2018-12-18T02:30:02.576Z,101905.88
2018-12-18T02:31:08.072Z,101910.95
2018-12-18T02:32:13.528Z,101911.81
2018-12-18T02:33:19.087Z,101903.34
2018-12-18T02:34:24.795Z,101910.48
2018-12-18T02:35:30.203Z,101903.31
2018-12-18T02:36:35.670Z,101895.25
2018-12-18T02:37:41.060Z,101903.31
2018-12-18T02:38:46.507Z,101894.45
2018-12-18T02:39:52.255Z,101889.34
2018-12-18T02:40:57.764Z,101894.37
2018-12-18T02:42:03.300Z,101894.33
2018-12-18T02:43:08.732Z,101890.95
2018-12-18T02:44:14.220Z,101892.27
2018-12-18T02:45:19.999Z,101893.47
2018-12-18T02:46:25.547Z,101893.93
2018-12-18T02:47:31.083Z,101898.13
2018-12-18T02:48:36.682Z,101907.03
2018-12-18T02:49:42.183Z,101899.84
2018-12-18T02:50:47.647Z,101904.06
2018-12-18T02:51:53.247Z,101908.30
2018-12-18T02:52:58.706Z,101904.48
2018-12-18T02:54:04.164Z,101904.94
2018-12-18T02:55:09.700Z,101902.80
2018-12-18T02:56:15.154Z,101911.22
2018-12-18T02:57:20.658Z,101910.81
2018-12-18T02:58:26.260Z,101909.55
2018-12-18T02:59:31.838Z,101908.26
2018-12-18T03:00:37.336Z,101905.28
2018-12-18T03:01:42.752Z,101907.80
2018-12-18T03:02:48.174Z,101910.83
2018-12-18T03:03:53.659Z,101907.45
2018-12-18T03:04:59.191Z,101911.72
2018-12-18T03:06:04.705Z,101914.27
2018-12-18T03:07:10.334Z,101911.30
2018-12-18T03:08:15.808Z,101911.73
2018-12-18T03:09:21.406Z,101917.60
2018-12-18T03:10:26.877Z,101912.11
2018-12-18T03:11:32.287Z,101920.17
2018-12-18T03:12:37.752Z,101920.57
2018-12-18T03:13:43.194Z,101916.75
2018-12-18T03:14:48.654Z,101919.30
2018-12-18T03:15:54.075Z,101912.07
2018-12-18T03:16:59.613Z,101916.73
2018-12-18T03:18:05.289Z,101912.47
2018-12-18T03:19:10.837Z,101908.23
2018-12-18T03:20:16.515Z,101913.32
2018-12-18T03:21:21.927Z,101912.84
2018-12-18T03:22:27.424Z,101916.69
2018-12-18T03:23:32.839Z,101912.86
2018-12-18T03:24:38.342Z,101916.27
2018-12-18T03:25:44.033Z,101917.16
2018-12-18T03:26:49.497Z,101919.27
2018-12-18T03:27:54.902Z,101923.06
2018-12-18T03:29:00.694Z,101919.67
2018-12-18T03:30:06.962Z,101916.73
2018-12-18T03:31:12.572Z,101915.06
2018-12-18T03:33:40.007Z,101916.28
2018-12-18T03:34:45.556Z,101922.64
2018-12-18T03:35:51.012Z,101925.58
2018-12-18T03:36:56.656Z,101915.84
2018-12-18T03:38:02.191Z,101923.49
2018-12-18T03:39:08.306Z,101924.36
2018-12-18T03:40:14.745Z,101925.20
2018-12-18T03:41:20.358Z,101926.09
2018-12-18T03:42:25.870Z,101930.34
2018-12-18T03:43:31.295Z,101925.26
2018-12-18T03:44:36.802Z,101927.77
2018-12-18T03:45:42.308Z,101927.80
2018-12-18T03:46:47.801Z,101930.72
2018-12-18T03:47:53.262Z,101929.07
2018-12-18T03:48:58.753Z,101925.26
2018-12-18T03:50:05.330Z,101931.59
2018-12-18T03:51:10.857Z,101932.02
2018-12-18T03:52:16.556Z,101926.08
2018-12-18T03:53:22.150Z,101925.26
2018-12-18T03:54:27.792Z,101922.28
2018-12-18T03:55:33.439Z,101922.27
2018-12-18T03:56:38.892Z,101926.95
2018-12-18T03:57:44.476Z,101918.05
2018-12-18T03:58:49.967Z,101916.80
2018-12-18T03:59:55.445Z,101922.28
2018-12-18T04:01:01.039Z,101917.65
2018-12-18T04:02:06.489Z,101915.13
2018-12-18T04:03:12.280Z,101916.02
2018-12-18T04:04:17.996Z,101915.17
2018-12-18T04:05:23.526Z,101910.94
2018-12-18T04:06:29.166Z,101910.52
2018-12-18T04:07:34.569Z,101899.53
2018-12-18T04:08:40.240Z,101906.27
2018-12-18T04:09:45.802Z,101904.16
2018-12-18T04:10:51.318Z,101899.96
2018-12-18T04:12:02.030Z,101894.45
2018-12-18T04:13:07.546Z,101891.89
2018-12-18T04:14:13.172Z,101895.70
2018-12-18T04:15:18.679Z,101885.13
2018-12-18T04:16:25.488Z,101891.89
2018-12-18T04:17:31.167Z,101881.27
2018-12-18T04:18:36.829Z,101883.38
2018-12-18T04:19:42.467Z,101886.33
2018-12-18T04:20:48.090Z,101885.94
2018-12-18T04:21:53.539Z,101886.79
2018-12-18T04:22:58.938Z,101884.30
2018-12-18T04:24:04.368Z,101887.27
2018-12-18T04:25:09.976Z,101882.16
2018-12-18T04:26:15.444Z,101888.53
2018-12-18T04:27:20.877Z,101882.58
2018-12-18T04:28:26.274Z,101891.52
2018-12-18T04:29:31.856Z,101883.11
2018-12-18T04:30:37.343Z,101886.05
2018-12-18T04:31:42.758Z,101891.56
2018-12-18T04:32:48.493Z,101892.84
2018-12-18T04:33:53.943Z,101896.23
2018-12-18T04:34:59.463Z,101894.13
2018-12-18T04:36:04.914Z,101898.39
2018-12-18T04:37:10.359Z,101897.11
2018-12-18T04:38:15.791Z,101901.36
2018-12-18T04:39:21.643Z,101900.04
2018-12-18T04:40:27.119Z,101897.92
2018-12-18T04:41:32.942Z,101901.34
2018-12-18T04:42:38.478Z,101903.05
2018-12-18T04:43:43.925Z,101899.66
2018-12-18T04:44:49.412Z,101897.12
2018-12-18T04:45:55.209Z,101898.39
2018-12-18T04:47:00.737Z,101901.77
2018-12-18T04:48:06.175Z,101896.68
2018-12-18T04:49:11.956Z,101901.34
2018-12-18T04:50:17.859Z,101902.63
2018-12-18T04:51:23.315Z,101897.59
2018-12-18T04:52:28.798Z,101895.44
2018-12-18T04:53:34.569Z,101907.76
2018-12-18T04:54:40.211Z,101893.78
2018-12-18T04:55:45.844Z,101900.98
2018-12-18T04:56:51.334Z,101895.47
2018-12-18T04:57:57.069Z,101898.90
2018-12-18T04:59:02.618Z,101899.73
2018-12-18T05:00:09.946Z,101895.06
2018-12-18T05:01:15.395Z,101904.34
2018-12-18T05:02:20.834Z,101897.59
2018-12-18T05:03:26.362Z,101904.34
2018-12-18T05:04:31.822Z,101898.39
2018-12-18T05:05:37.261Z,101903.91
2018-12-18T05:06:42.747Z,101900.52
2018-12-18T05:07:48.256Z,101907.72
2018-12-18T05:08:53.832Z,101906.45
2018-12-18T05:09:59.263Z,101911.14
2018-12-18T05:11:04.759Z,101908.99
2018-12-18T05:12:10.241Z,101906.87
2018-12-18T05:13:15.721Z,101907.39
2018-12-18T05:14:21.142Z,101906.51
2018-12-18T05:15:26.720Z,101910.30
2018-12-18T05:16:32.230Z,101916.66
2018-12-18T05:17:37.692Z,101917.54
2018-12-18T05:18:43.231Z,101918.83
2018-12-18T05:19:48.718Z,101918.84
2018-12-18T05:20:54.251Z,101915.86
2018-12-18T05:21:59.768Z,101915.01
2018-12-18T05:23:05.307Z,101921.00
2018-12-18T05:24:10.848Z,101908.69
2018-12-18T05:25:16.266Z,101910.78
2018-12-18T05:26:22.861Z,101907.30
2018-12-18T05:27:28.387Z,101912.79
2018-12-18T05:28:33.734Z,101908.99
2018-12-18T05:29:39.146Z,101909.40
2018-12-18T05:30:44.568Z,101909.42
2018-12-18T05:31:50.145Z,101912.37
2018-12-18T05:32:55.679Z,101917.47
2018-12-18T05:34:01.243Z,101914.08
2018-12-18T05:35:06.780Z,101917.49
2018-12-18T05:36:12.418Z,101917.49
2018-12-18T05:37:17.872Z,101913.25
2018-12-18T05:38:23.570Z,101906.06
2018-12-18T05:39:29.256Z,101912.05
2018-12-18T05:40:34.866Z,101913.25
2018-12-18T05:41:40.415Z,101911.58
2018-12-18T05:42:45.960Z,101914.95
2018-12-18T05:43:51.480Z,101912.84
2018-12-18T05:44:56.876Z,101912.03
2018-12-18T05:46:02.395Z,101911.59
2018-12-18T05:47:07.908Z,101909.84
2018-12-18T05:48:13.611Z,101914.06
2018-12-18T05:49:19.175Z,101915.37
2018-12-18T05:50:24.846Z,101914.97
2018-12-18T05:51:30.296Z,101920.48
2018-12-18T05:52:36.040Z,101917.11
2018-12-18T05:53:41.672Z,101912.45
2018-12-18T05:54:47.165Z,101911.18
2018-12-18T05:55:52.720Z,101917.98
2018-12-18T05:56:58.334Z,101921.75
2018-12-18T05:58:03.894Z,101917.92
2018-12-18T05:59:09.423Z,101921.31
2018-12-18T06:00:14.851Z,101918.34
2018-12-18T06:01:20.265Z,101915.82
2018-12-18T06:02:25.648Z,101919.59
2018-12-18T06:03:31.079Z,101916.98
2018-12-18T06:04:36.637Z,101921.72
2018-12-18T06:05:42.143Z,101919.58
2018-12-18T06:06:47.720Z,101924.26
2018-12-18T06:07:53.267Z,101925.51
2018-12-18T06:08:58.699Z,101928.05
2018-12-18T06:10:04.683Z,101924.64
2018-12-18T06:11:10.394Z,101922.91
2018-12-18T06:12:15.834Z,101923.39
2018-12-18T06:13:21.371Z,101916.67
2018-12-18T06:14:26.882Z,101919.20
2018-12-18T06:15:32.342Z,101921.28
2018-12-18T06:16:37.993Z,101920.03
2018-12-18T06:17:43.443Z,101931.94
2018-12-18T06:18:48.939Z,101925.17
2018-12-18T06:19:54.394Z,101921.80
2018-12-18T06:20:59.864Z,101920.11
2018-12-18T06:22:05.379Z,101928.56
2018-12-18T06:23:10.834Z,101927.25
2018-12-18T06:24:16.244Z,101921.34
2018-12-18T06:25:21.661Z,101927.67
2018-12-18T06:26:27.246Z,101925.13
2018-12-18T06:27:32.742Z,101919.22
2018-12-18T06:28:38.322Z,101925.59
2018-12-18T06:29:43.923Z,101925.17
2018-12-18T06:30:49.412Z,101927.72
2018-12-18T06:31:55.401Z,101929.02
2018-12-18T06:33:01.034Z,101927.73
2018-12-18T06:34:06.547Z,101925.17
2018-12-18T06:35:12.011Z,101930.67
2018-12-18T06:36:18.039Z,101933.20
2018-12-18T06:37:23.590Z,101928.52
2018-12-18T06:38:29.235Z,101927.25
2018-12-18T06:39:34.864Z,101925.20
2018-12-18T06:40:40.401Z,101923.52
2018-12-18T06:41:45.826Z,101927.73
2018-12-18T06:42:51.297Z,101923.91
2018-12-18T06:43:56.819Z,101923.05
2018-12-18T06:45:02.597Z,101926.09
2018-12-18T06:46:08.044Z,101932.46
2018-12-18T06:47:13.540Z,101929.50
2018-12-18T06:48:18.971Z,101932.02
2018-12-18T06:49:24.464Z,101926.91
2018-12-18T06:50:29.897Z,101932.00
2018-12-18T06:51:35.440Z,101928.61
2018-12-18T06:52:40.897Z,101925.66
2018-12-18T06:53:46.659Z,101924.80
2018-12-18T06:54:52.134Z,101929.00
2018-12-18T06:55:57.587Z,101923.92
2018-12-18T06:57:03.023Z,101921.77
2018-12-18T06:58:08.515Z,101920.52
2018-12-18T06:59:14.195Z,101910.82
2018-12-18T07:00:19.620Z,101911.28
2018-12-18T07:01:25.085Z,101923.12
2018-12-18T07:02:30.747Z,101910.42
2018-12-18T07:03:36.383Z,101917.69
2018-12-18T07:04:42.066Z,101924.45
2018-12-18T07:05:47.555Z,101915.98
2018-12-18T07:06:53.100Z,101916.81
2018-12-18T07:07:58.589Z,101920.22
2018-12-18T07:09:06.473Z,101922.36
2018-12-18T07:10:12.022Z,101916.81
2018-12-18T07:11:17.782Z,101915.18
2018-12-18T07:12:23.515Z,101911.71
2018-12-18T07:13:29.018Z,101923.16
2018-12-18T07:14:34.477Z,101918.52
2018-12-18T07:15:40.037Z,101920.66
2018-12-18T07:16:45.472Z,101920.67
2018-12-18T07:17:51.150Z,101918.57
2018-12-18T07:18:56.627Z,101915.23
2018-12-18T07:20:02.127Z,101913.11
2018-12-18T07:21:07.637Z,101910.95
2018-12-18T07:22:13.295Z,101915.18
2018-12-18T07:23:19.031Z,101911.38
2018-12-18T07:24:24.632Z,101919.08
2018-12-18T07:25:30.128Z,101917.34
2018-12-18T07:26:35.611Z,101916.94
2018-12-18T07:27:41.084Z,101914.86
2018-12-18T07:28:46.471Z,101910.64
2018-12-18T07:29:52.284Z,101913.14
2018-12-18T07:30:57.798Z,101910.23
2018-12-18T07:32:03.326Z,101905.64
2018-12-18T07:33:09.022Z,101898.84
2018-12-18T07:34:14.549Z,101895.45
2018-12-18T07:35:23.246Z,101894.21
2018-12-18T07:36:28.112Z,101889.61
2018-12-18T07:37:33.610Z,101884.91
2018-12-18T07:38:39.043Z,101881.45
2018-12-18T07:39:44.584Z,101871.31
2018-12-18T07:40:50.355Z,101867.02
2018-12-18T07:41:56.006Z,101863.16
2018-12-18T07:43:01.520Z,101857.25
2018-12-18T07:44:07.058Z,101856.82
2018-12-18T07:45:12.511Z,101857.29
2018-12-18T07:46:18.015Z,101856.87
2018-12-18T07:47:23.586Z,101859.86
2018-12-18T07:48:29.058Z,101853.02
2018-12-18T07:49:34.657Z,101852.98
2018-12-18T07:50:40.337Z,101860.22
2018-12-18T07:51:46.084Z,101854.70
2018-12-18T07:52:51.509Z,101857.21
2018-12-18T07:53:56.955Z,101852.53
2018-12-18T07:55:02.594Z,101855.11
2018-12-18T07:56:08.022Z,101856.00
2018-12-18T07:57:13.588Z,101856.41
2018-12-18T07:58:19.303Z,101856.02
2018-12-18T07:59:24.805Z,101861.11
2018-12-18T08:00:30.228Z,101861.07
2018-12-18T08:01:35.776Z,101858.05
2018-12-18T08:02:41.299Z,101857.62
2018-12-18T08:03:47.024Z,101858.50
2018-12-18T08:04:52.605Z,101862.77
2018-12-18T08:05:58.111Z,101863.58
2018-12-18T08:07:03.574Z,101864.84
2018-12-18T08:08:08.978Z,101863.61
2018-12-18T08:09:14.643Z,101869.16
2018-12-18T08:10:20.214Z,101866.63
2018-12-18T08:11:25.754Z,101867.97
2018-12-18T08:12:31.329Z,101872.98
2018-12-18T08:13:36.841Z,101872.09
2018-12-18T08:14:42.458Z,101866.61
2018-12-18T08:15:48.007Z,101872.17
2018-12-18T08:16:53.543Z,101863.28
2018-12-18T08:17:59.093Z,101867.53
2018-12-18T08:19:04.651Z,101864.60
2018-12-18T08:20:10.259Z,101869.67
2018-12-18T08:21:15.884Z,101869.73
2018-12-18T08:22:21.482Z,101865.42
2018-12-18T08:23:27.002Z,101868.36
2018-12-18T08:24:32.452Z,101863.72
2018-12-18T08:25:38.201Z,101862.09
2018-12-18T08:26:43.725Z,101860.44
2018-12-18T08:27:49.183Z,101859.12
2018-12-18T08:28:54.765Z,101857.00
2018-12-18T08:30:00.379Z,101860.02
2018-12-18T08:31:06.279Z,101864.30
2018-12-18T08:32:11.929Z,101866.32
2018-12-18T08:33:17.487Z,101871.81
2018-12-18T08:34:22.975Z,101866.30
2018-12-18T08:35:28.336Z,101867.48
2018-12-18T08:36:33.855Z,101871.30
2018-12-18T08:37:39.358Z,101873.92
2018-12-18T08:38:44.907Z,101872.65
2018-12-18T08:39:50.297Z,101874.75
2018-12-18T08:40:55.911Z,101876.82
2018-12-18T08:42:01.460Z,101875.56
2018-12-18T08:43:06.938Z,101870.42
2018-12-18T08:44:12.473Z,101876.30
2018-12-18T08:45:17.927Z,101881.41
2018-12-18T08:46:23.380Z,101879.31
2018-12-18T08:47:28.771Z,101878.48
2018-12-18T08:48:34.746Z,101878.93
2018-12-18T08:49:40.185Z,101879.81
2018-12-18T08:50:45.778Z,101878.09
2018-12-18T08:51:51.208Z,101871.69
2018-12-18T08:52:56.628Z,101877.27
2018-12-18T08:54:02.068Z,101869.65
2018-12-18T08:55:08.313Z,101870.05
2018-12-18T08:56:13.887Z,101868.79
2018-12-18T08:57:19.390Z,101857.70
2018-12-18T08:58:24.819Z,101860.29
2018-12-18T08:59:30.272Z,101856.05
2018-12-18T09:00:35.928Z,101856.96
2018-12-18T09:01:41.558Z,101854.45
2018-12-18T09:02:47.136Z,101852.77
2018-12-18T09:03:52.562Z,101851.16
2018-12-18T09:04:58.080Z,101849.94
2018-12-18T09:06:03.547Z,101843.47
2018-12-18T09:07:09.150Z,101839.98
2018-12-18T09:08:14.736Z,101838.73
2018-12-18T09:09:20.263Z,101837.06
2018-12-18T09:10:25.845Z,101836.63
2018-12-18T09:11:31.220Z,101843.05
2018-12-18T09:12:36.799Z,101838.77
2018-12-18T09:13:42.170Z,101838.38
2018-12-18T09:14:53.129Z,101835.90
2018-12-18T09:15:59.077Z,101839.69
2018-12-18T09:18:31.307Z,101839.72
2018-12-18T09:19:36.992Z,101837.59
2018-12-18T09:20:42.644Z,101830.37
2018-12-18T09:21:48.168Z,101833.80
2018-12-18T09:22:53.748Z,101834.69
2018-12-18T09:23:59.370Z,101830.81
2018-12-18T09:25:05.951Z,101835.10
2018-12-18T09:26:11.661Z,101826.64
2018-12-18T09:27:17.080Z,101829.15
2018-12-18T09:28:22.519Z,101828.27
2018-12-18T09:29:28.192Z,101826.22
2018-12-18T09:30:33.603Z,101820.30
2018-12-18T09:31:39.127Z,101819.87
2018-12-18T09:32:44.586Z,101822.94
2018-12-18T09:33:50.041Z,101816.97
2018-12-18T09:34:55.696Z,101823.80
2018-12-18T09:36:01.120Z,101821.67
2018-12-18T09:37:06.759Z,101810.98
2018-12-18T09:38:17.459Z,101816.14
2018-12-18T09:40:52.254Z,101812.33
2018-12-18T09:42:03.002Z,101819.58
2018-12-18T09:43:13.601Z,101821.66
2018-12-18T09:44:19.378Z,101822.56
2018-12-18T09:45:24.981Z,101822.59
2018-12-18T09:46:31.292Z,101832.80
2018-12-18T09:47:36.971Z,101835.33
2018-12-18T09:48:42.612Z,101834.86
2018-12-18T09:49:48.082Z,101834.89
2018-12-18T09:50:53.490Z,101837.86
2018-12-18T09:51:58.979Z,101828.52
2018-12-18T09:53:04.884Z,101829.36
2018-12-18T09:54:10.498Z,101825.53
2018-12-18T09:55:16.029Z,101820.45
2018-12-18T09:56:21.478Z,101831.13
2018-12-18T09:57:32.242Z,101828.19
2018-12-18T09:58:37.789Z,101825.59
2018-12-18T09:59:43.369Z,101828.21
2018-12-18T10:00:48.810Z,101822.67
2018-12-18T10:01:54.184Z,101821.38
2018-12-18T10:02:59.570Z,101820.11
2018-12-18T10:04:05.218Z,101815.45
2018-12-18T10:05:10.898Z,101809.56
2018-12-18T10:06:16.431Z,101804.08
2018-12-18T10:07:21.936Z,101805.36
2018-12-18T10:08:27.431Z,101810.93
2018-12-18T10:09:33.230Z,101814.70
2018-12-18T10:10:38.721Z,101823.63
2018-12-18T10:11:44.139Z,101824.06
2018-12-18T10:12:56.586Z,101823.60
2018-12-18T10:14:02.172Z,101825.34
2018-12-18T10:15:08.461Z,101817.65
2018-12-18T10:16:14.039Z,101821.01
2018-12-18T10:17:19.877Z,101809.46
2018-12-18T10:18:26.414Z,101820.92
2018-12-18T10:19:31.924Z,101816.64
2018-12-18T10:20:37.480Z,101817.09
2018-12-18T10:21:43.018Z,101813.70
2018-12-18T10:22:48.901Z,101814.13
2018-12-18T10:23:54.398Z,101808.17
2018-12-18T10:24:59.900Z,101806.09
2018-12-18T10:26:05.502Z,101806.47
2018-12-18T10:27:11.035Z,101803.88
2018-12-18T10:28:16.802Z,101799.25
2018-12-18T10:29:22.403Z,101799.74
2018-12-18T10:30:28.131Z,101799.35
2018-12-18T10:31:33.698Z,101795.05
2018-12-18T10:32:39.139Z,101788.25
2018-12-18T10:33:44.895Z,101781.91
2018-12-18T10:34:50.383Z,101784.48
2018-12-18T10:35:55.922Z,101779.39
2018-12-18T10:37:01.414Z,101776.83
2018-12-18T10:38:07.316Z,101778.97
2018-12-18T10:39:12.907Z,101781.10
2018-12-18T10:40:18.464Z,101779.02
2018-12-18T10:41:24.060Z,101777.38
2018-12-18T10:42:29.744Z,101773.58
2018-12-18T10:43:36.108Z,101780.41
2018-12-18T10:44:41.780Z,101765.52
2018-12-18T10:45:47.216Z,101764.27
2018-12-18T10:46:52.738Z,101763.84
2018-12-18T10:47:58.274Z,101768.50
2018-12-18T10:49:03.965Z,101762.56
2018-12-18T10:50:09.624Z,101763.84
2018-12-18T10:51:14.998Z,101762.17
2018-12-18T10:52:20.450Z,101757.47
2018-12-18T10:53:25.884Z,101756.22
2018-12-18T10:54:31.437Z,101751.13
2018-12-18T10:55:37.070Z,101747.27
2018-12-18T10:56:42.748Z,101745.58
2018-12-18T10:57:48.300Z,101743.89
2018-12-18T10:58:53.799Z,101742.16
2018-12-18T10:59:59.262Z,101743.50
2018-12-18T11:01:10.335Z,101733.23
2018-12-18T11:02:15.754Z,101737.04
2018-12-18T11:03:21.127Z,101732.38
2018-12-18T11:04:26.600Z,101723.84
2018-12-18T11:05:32.178Z,101725.98
2018-12-18T11:06:37.889Z,101719.59
2018-12-18T11:07:43.481Z,101715.34
2018-12-18T11:08:49.199Z,101713.66
2018-12-18T11:09:54.961Z,101706.84
2018-12-18T11:11:01.083Z,101697.07
2018-12-18T11:12:06.552Z,101700.88
2018-12-18T11:13:17.114Z,101696.64
2018-12-18T11:14:22.623Z,101695.80
2018-12-18T11:15:28.192Z,101691.95
2018-12-18T11:16:37.327Z,101691.55
2018-12-18T11:17:41.356Z,101685.59
2018-12-18T11:18:46.909Z,101686.47
2018-12-18T11:19:52.572Z,101680.55
2018-12-18T11:20:58.142Z,101682.20
2018-12-18T11:22:03.861Z,101677.09
2018-12-18T11:23:09.455Z,101679.70
2018-12-18T11:24:15.611Z,101675.86
2018-12-18T11:25:21.207Z,101673.70
2018-12-18T11:26:26.706Z,101669.44
2018-12-18T11:27:32.238Z,101660.91
2018-12-18T11:28:37.957Z,101662.61
2018-12-18T11:29:43.508Z,101662.20
2018-12-18T11:30:49.020Z,101663.48
2018-12-18T11:31:54.530Z,101660.92
2018-12-18T11:33:00.031Z,101666.89
2018-12-18T11:34:05.664Z,101660.09
2018-12-18T11:35:11.215Z,101661.36
2018-12-18T11:36:16.996Z,101667.73
2018-12-18T11:37:22.395Z,101666.08
2018-12-18T11:38:27.804Z,101662.68
2018-12-18T11:39:33.320Z,101663.97
2018-12-18T11:40:38.835Z,101664.80
2018-12-18T11:41:44.294Z,101669.06
2018-12-18T11:42:49.949Z,101672.88
2018-12-18T11:43:55.458Z,101669.50
2018-12-18T11:45:00.896Z,101666.93
2018-12-18T11:46:06.516Z,101663.96
2018-12-18T11:47:12.054Z,101661.84
2018-12-18T11:48:17.569Z,101656.73
2018-12-18T11:49:23.067Z,101653.31
2018-12-18T11:50:28.536Z,101646.06
2018-12-18T11:51:34.052Z,101647.34
2018-12-18T11:52:39.508Z,101648.63
2018-12-18T11:53:45.022Z,101645.65
2018-12-18T11:54:50.553Z,101649.48
2018-12-18T11:55:56.306Z,101645.25
2018-12-18T11:57:01.696Z,101640.97
2018-12-18T11:58:07.252Z,101639.71
2018-12-18T11:59:12.752Z,101640.97
2018-12-18T12:00:18.322Z,101635.44
2018-12-18T12:01:23.943Z,101637.56
2018-12-18T12:02:29.380Z,101630.34
2018-12-18T12:03:35.126Z,101629.91
2018-12-18T12:04:40.577Z,101631.62
2018-12-18T12:05:46.190Z,101625.66
2018-12-18T12:06:51.762Z,101626.51
2018-12-18T12:07:57.111Z,101630.34
2018-12-18T12:09:02.638Z,101632.45
2018-12-18T12:10:08.595Z,101637.98
2018-12-18T12:11:14.185Z,101639.67
2018-12-18T12:12:19.769Z,101635.00
2018-12-18T12:13:25.318Z,101636.70
2018-12-18T12:14:30.872Z,101639.25
2018-12-18T12:15:37.136Z,101645.62
2018-12-18T12:16:42.685Z,101636.25
2018-12-18T12:17:48.420Z,101632.82
2018-12-18T12:18:54.016Z,101638.77
2018-12-18T12:19:59.468Z,101635.35
2018-12-18T12:21:04.984Z,101631.11
2018-12-18T12:22:10.720Z,101635.81
2018-12-18T12:23:16.195Z,101627.71
2018-12-18T12:24:21.782Z,101630.27
2018-12-18T12:25:27.289Z,101627.69
2018-12-18T12:26:34.363Z,101634.51
2018-12-18T12:27:45.079Z,101631.55
2018-12-18T12:28:50.587Z,101621.73
2018-12-18T12:29:56.102Z,101624.34
2018-12-18T12:31:01.531Z,101622.63
2018-12-18T12:32:07.130Z,101620.52
2018-12-18T12:33:12.685Z,101612.03
2018-12-18T12:34:18.078Z,101611.59
2018-12-18T12:35:23.532Z,101611.16
2018-12-18T12:36:29.828Z,101611.59